Time;durP1;ratioP1;P1;durP2;ratioP2;P2;SDS_P1;SDS_P2;PMS_P1;PMS_P2;Temp;Humidity;BMP_temperature;BMP_pressure;BME280_temperature;BME280_humidity;BME280_pressure;Samples;Min_cycle;Max_cycle;Signal;HPM_P1;HPM_P2
2022/10/22 00:01:08;;;;;;;23.40;16.60;;;;;;;9.07;79.05;100126.80;100786;1289;111539;-57
2022/10/22 00:03:38;;;;;;;25.50;16.50;;;;;;;9.17;78.94;100137.34;100645;1293;139957;-57
2022/10/22 00:06:06;;;;;;;24.10;17.00;;;;;;;9.26;78.78;100134.45;100781;1288;94656;-58
2022/10/22 00:08:34;;;;;;;24.80;17.40;;;;;;;9.33;78.35;100131.09;100661;1305;138726;-58
2022/10/22 00:11:20;;;;;;;26.20;17.00;;;;;;;9.31;78.28;100128.14;101188;1287;99303;-58
2022/10/22 00:13:49;;;;;;;24.60;16.90;;;;;;;9.33;78.41;100123.12;100675;1287;180915;-59
2022/10/22 00:16:17;;;;;;;24.60;17.10;;;;;;;9.32;78.38;100121.55;101047;1284;140013;-59
2022/10/22 00:18:45;;;;;;;26.10;18.00;;;;;;;9.28;78.44;100119.70;100792;1287;95852;-59
2022/10/22 00:21:13;;;;;;;24.30;17.40;;;;;;;9.26;78.56;100118.52;100716;1281;139172;-59
2022/10/22 00:23:42;;;;;;;26.30;17.90;;;;;;;9.26;78.68;100121.00;100787;1287;99418;-58
2022/10/22 00:26:10;;;;;;;26.50;18.10;;;;;;;9.30;78.95;100123.38;101064;1289;105859;-58
2022/10/22 00:28:38;;;;;;;26.70;18.60;;;;;;;9.34;78.79;100123.27;100775;1288;94598;-59
2022/10/22 00:31:06;;;;;;;27.90;18.70;;;;;;;9.34;78.79;100118.48;100724;1289;95149;-58
2022/10/22 00:33:34;;;;;;;26.40;19.00;;;;;;;9.33;78.67;100112.86;100695;1289;138557;-58
2022/10/22 00:36:02;;;;;;;24.70;17.90;;;;;;;9.26;78.82;100101.15;100811;1287;97889;-58
2022/10/22 00:38:30;;;;;;;27.30;18.80;;;;;;;9.22;79.13;100095.06;100793;1281;139803;-58
2022/10/22 00:40:58;;;;;;;26.90;18.40;;;;;;;9.22;79.36;100090.99;100727;1288;94360;-57
2022/10/22 00:43:26;;;;;;;26.30;18.20;;;;;;;9.20;79.47;100085.54;100774;1288;95207;-58
2022/10/22 00:45:54;;;;;;;25.50;18.60;;;;;;;9.19;79.53;100089.11;100673;1289;138694;-59
2022/10/22 00:48:26;;;;;;;26.60;18.60;;;;;;;9.20;79.63;100087.13;100752;1288;99892;-59
2022/10/22 00:51:07;;;;;;;26.90;19.40;;;;;;;9.21;79.69;100086.42;100715;1288;138852;-57
2022/10/22 00:53:39;;;;;;;25.50;18.80;;;;;;;9.20;79.60;100089.08;100945;1287;94410;-59
2022/10/22 00:56:09;;;;;;;28.40;18.30;;;;;;;9.20;79.79;100084.47;101189;1289;94480;-57
2022/10/22 00:58:42;;;;;;;26.40;18.90;;;;;;;9.21;79.81;100085.36;100688;1298;138696;-57
2022/10/22 01:01:15;;;;;;;26.40;18.50;;;;;;;9.20;79.93;100085.55;100890;1289;97923;-58
2022/10/22 01:03:43;;;;;;;26.00;18.20;;;;;;;9.19;80.18;100079.55;100683;1289;138970;-58
2022/10/22 01:06:18;;;;;;;25.80;17.90;;;;;;;9.19;80.13;100076.00;100625;1288;95897;-59
2022/10/22 01:09:04;;;;;;;28.60;18.80;;;;;;;9.17;80.26;100077.11;103798;1289;139192;-57
2022/10/22 01:11:51;;;;;;;26.40;18.90;;;;;;;9.19;80.40;100072.28;100772;1288;108920;-57
2022/10/22 01:14:51;;;;;;;27.10;19.80;;;;;;;9.23;80.50;100072.55;100699;1303;138961;-58
2022/10/22 01:17:25;;;;;;;25.10;18.80;;;;;;;9.25;80.28;100071.24;100706;1290;108877;-58
2022/10/22 01:20:05;;;;;;;25.60;19.20;;;;;;;9.24;80.32;100067.55;100721;1287;94661;-58
2022/10/22 01:22:46;;;;;;;26.10;18.60;;;;;;;9.24;80.28;100068.44;100647;1288;138246;-57
2022/10/22 01:25:24;;;;;;;26.40;18.70;;;;;;;9.24;80.55;100059.40;100780;1288;107712;-58
2022/10/22 01:28:10;;;;;;;25.30;18.00;;;;;;;9.25;80.47;100059.58;100651;1289;139332;-57
2022/10/22 01:30:39;;;;;;;25.00;19.10;;;;;;;9.26;80.60;100057.76;100867;1288;108442;-58
2022/10/22 01:33:11;;;;;;;25.50;18.70;;;;;;;9.26;80.60;100054.39;100659;1295;138833;-58
2022/10/22 01:35:43;;;;;;;24.60;17.90;;;;;;;9.28;80.79;100051.34;100747;1289;94684;-58
2022/10/22 01:38:16;;;;;;;25.20;17.80;;;;;;;9.29;80.96;100055.20;100873;1288;107951;-59
2022/10/22 01:40:46;;;;;;;25.90;18.10;;;;;;;9.32;80.91;100053.17;100842;1288;97844;-57
2022/10/22 01:43:14;;;;;;;25.20;18.10;;;;;;;9.36;81.06;100055.90;100786;1308;107824;-59
2022/10/22 01:45:47;;;;;;;26.00;17.90;;;;;;;9.37;81.25;100058.16;100667;1281;139635;-58
2022/10/22 01:48:33;;;;;;;25.20;17.20;;;;;;;9.38;81.16;100060.45;100837;1296;94761;-58
2022/10/22 01:51:04;;;;;;;24.60;17.40;;;;;;;9.40;81.37;100064.30;100696;1288;138806;-57
2022/10/22 01:53:39;;;;;;;26.30;18.20;;;;;;;9.41;81.32;100064.62;100794;1306;99011;-56
2022/10/22 01:56:35;;;;;;;24.10;17.90;;;;;;;9.42;81.43;100063.34;100945;1282;108515;-58
2022/10/22 01:59:06;;;;;;;24.90;18.00;;;;;;;9.46;81.51;100059.19;100744;1298;94536;-58
2022/10/22 02:01:58;;;;;;;24.40;17.40;;;;;;;9.48;81.51;100054.86;101031;1289;94318;-59
2022/10/22 02:04:32;;;;;;;24.50;17.90;;;;;;;9.49;81.57;100050.95;100675;1288;138544;-58
2022/10/22 02:07:05;;;;;;;24.70;17.00;;;;;;;9.49;81.78;100046.16;100742;1287;99019;-58
2022/10/22 02:09:34;;;;;;;24.20;17.10;;;;;;;9.46;81.80;100039.48;100735;1295;139019;-57
2022/10/22 02:12:05;;;;;;;24.40;17.10;;;;;;;9.45;81.91;100037.95;100898;1289;95471;-57
2022/10/22 02:14:38;;;;;;;25.10;18.20;;;;;;;9.42;82.17;100042.79;100699;1289;142720;-57
2022/10/22 02:17:11;;;;;;;27.60;18.00;;;;;;;9.43;82.48;100042.26;101170;1287;106410;-57
2022/10/22 02:19:54;;;;;;;23.70;16.50;;;;;;;9.43;82.41;100043.84;100886;1288;97796;-57
2022/10/22 02:22:25;;;;;;;23.80;16.60;;;;;;;9.44;82.55;100041.70;100679;1288;138586;-57
2022/10/22 02:24:52;;;;;;;24.90;16.70;;;;;;;9.42;82.57;100034.48;100722;1288;94722;-57
2022/10/22 02:27:20;;;;;;;23.10;15.50;;;;;;;9.43;82.84;100037.45;100661;1295;138520;-56
2022/10/22 02:30:26;;;;;;;20.10;14.60;;;;;;;9.48;82.95;100038.04;100828;1289;107839;-56
2022/10/22 02:33:02;;;;;;;20.50;14.30;;;;;;;9.53;82.77;100039.46;100164;1296;139352;-56
2022/10/22 02:35:31;;;;;;;19.70;14.90;;;;;;;9.61;82.79;100039.60;100890;1289;106617;-61
2022/10/22 02:38:00;;;;;;;20.00;13.90;;;;;;;9.71;82.76;100041.45;100813;1295;94730;-64
2022/10/22 02:40:30;;;;;;;19.60;14.30;;;;;;;9.77;82.28;100046.80;100699;1305;138686;-63
2022/10/22 02:42:58;;;;;;;19.30;14.00;;;;;;;9.80;82.10;100049.55;101003;1295;108847;-57
2022/10/22 02:45:26;;;;;;;20.90;14.50;;;;;;;9.84;81.98;100049.44;100707;1281;139544;-58
2022/10/22 02:47:53;;;;;;;19.70;14.40;;;;;;;9.89;81.78;100042.37;100818;1311;107529;-56
2022/10/22 02:50:21;;;;;;;19.30;12.70;;;;;;;9.91;81.74;100042.66;100721;1288;139958;-56
2022/10/22 02:52:49;;;;;;;18.40;13.60;;;;;;;9.95;81.60;100040.59;100693;1292;94819;-57
2022/10/22 02:55:17;;;;;;;19.20;12.70;;;;;;;9.99;81.74;100046.33;100876;1291;107759;-57
2022/10/22 02:57:47;;;;;;;20.00;13.90;;;;;;;10.03;81.62;100048.35;100774;1289;138884;-56
2022/10/22 03:00:17;;;;;;;20.50;13.80;;;;;;;10.08;81.47;100046.08;100794;1288;109300;-60
2022/10/22 03:02:45;;;;;;;19.50;13.70;;;;;;;10.13;81.23;100046.98;100827;1282;139681;-58
2022/10/22 03:05:14;;;;;;;18.70;13.40;;;;;;;10.16;81.15;100043.17;100799;1281;94284;-57
2022/10/22 06:21:29;;;;;;;19.30;14.40;;;;;;;11.07;80.03;100016.84;100687;1289;139370;-57
2022/10/22 06:23:59;;;;;;;17.80;12.40;;;;;;;11.08;80.03;100018.40;100716;1291;106989;-57
2022/10/22 06:26:28;;;;;;;22.20;16.10;;;;;;;11.10;79.93;100018.49;100953;1281;98567;-58
2022/10/22 06:28:57;;;;;;;18.20;12.50;;;;;;;11.09;79.78;100019.77;100920;1288;138700;-56
2022/10/22 06:31:26;;;;;;;19.30;13.30;;;;;;;11.15;79.83;100017.79;101007;1305;94678;-58
2022/10/22 06:33:56;;;;;;;20.60;13.00;;;;;;;11.17;79.75;100013.83;100995;1288;139319;-57
2022/10/22 06:36:24;;;;;;;24.20;12.90;;;;;;;11.16;79.80;100030.91;100911;1295;108971;-57
2022/10/22 06:38:53;;;;;;;23.80;14.10;;;;;;;11.19;79.73;100035.26;101004;1288;98879;-60
2022/10/22 06:41:23;;;;;;;20.40;13.80;;;;;;;11.26;79.77;100029.34;100841;1288;138659;-59
2022/10/22 06:43:56;;;;;;;24.70;15.30;;;;;;;11.29;79.31;100028.35;100937;1285;94299;-57
2022/10/22 06:46:25;;;;;;;20.50;13.70;;;;;;;11.26;79.12;100018.30;101336;1288;138363;-59
2022/10/22 06:48:56;;;;;;;18.50;12.10;;;;;;;11.28;79.45;100020.00;101039;1312;107207;-57
2022/10/22 06:51:26;;;;;;;18.20;12.20;;;;;;;11.31;79.24;100028.24;100861;1295;139499;-59
2022/10/22 06:53:55;;;;;;;16.60;11.90;;;;;;;11.42;79.35;100028.41;100914;1281;107032;-57
2022/10/22 06:56:26;;;;;;;19.20;12.70;;;;;;;11.49;79.00;100037.72;100895;1303;94326;-58
2022/10/22 06:58:55;;;;;;;18.40;13.00;;;;;;;11.50;78.70;100038.24;100805;1289;139695;-58
2022/10/22 07:01:26;;;;;;;16.40;11.90;;;;;;;11.54;78.83;100030.11;101000;1288;108169;-57
2022/10/22 07:03:54;;;;;;;19.00;12.70;;;;;;;11.53;78.87;100034.59;100840;1284;139061;-58
2022/10/22 07:06:24;;;;;;;15.30;10.80;;;;;;;11.60;78.80;100055.16;100897;1281;107524;-58
2022/10/22 07:08:54;;;;;;;16.70;11.90;;;;;;;11.66;78.36;100065.08;100984;1298;94333;-61
2022/10/22 07:11:41;;;;;;;18.70;11.70;;;;;;;11.62;77.92;100074.08;100826;1281;138597;-57
2022/10/22 07:14:10;;;;;;;15.70;10.90;;;;;;;11.55;77.79;100075.96;100878;1304;106350;-58
2022/10/22 07:16:41;;;;;;;17.80;12.00;;;;;;;11.51;77.93;100074.29;100759;1281;139495;-57
2022/10/22 07:19:11;;;;;;;17.10;11.80;;;;;;;11.49;78.13;100075.10;100806;1297;107457;-57
2022/10/22 07:21:38;;;;;;;15.90;11.30;;;;;;;11.51;78.37;100074.50;100943;1281;139049;-57
2022/10/22 07:24:07;;;;;;;18.60;12.20;;;;;;;11.51;78.32;100073.41;100911;1289;94706;-56
2022/10/22 07:26:35;;;;;;;14.60;10.70;;;;;;;11.56;78.49;100070.58;100931;1288;107442;-57
2022/10/22 07:29:03;;;;;;;17.50;12.20;;;;;;;11.58;78.15;100067.66;100838;1288;139060;-58
2022/10/22 07:31:31;;;;;;;16.50;10.70;;;;;;;11.59;78.42;100060.17;101089;1288;106737;-62
2022/10/22 07:33:59;;;;;;;17.30;11.50;;;;;;;11.58;78.23;100057.90;100841;1288;139750;-58
2022/10/22 07:36:27;;;;;;;18.70;12.00;;;;;;;11.56;78.28;100052.09;100972;1288;95538;-58
2022/10/22 07:38:57;;;;;;;17.00;11.50;;;;;;;11.58;78.66;100049.70;100932;1287;107975;-57
2022/10/22 07:41:27;;;;;;;17.10;11.60;;;;;;;11.60;78.45;100045.20;100863;1288;139851;-57
2022/10/22 07:43:57;;;;;;;16.40;11.50;;;;;;;11.62;78.66;100047.94;101528;1288;107431;-57
2022/10/22 07:46:26;;;;;;;17.60;11.70;;;;;;;11.65;78.38;100045.34;100779;1299;139516;-57
2022/10/22 07:48:54;;;;;;;16.60;12.30;;;;;;;11.69;78.39;100050.03;100939;1281;94822;-57
2022/10/22 07:51:22;;;;;;;17.40;11.70;;;;;;;11.69;78.25;100053.58;100935;1288;106518;-58
2022/10/22 07:53:50;;;;;;;18.00;12.10;;;;;;;11.68;78.25;100051.30;100948;1281;99176;-58
2022/10/22 07:56:43;;;;;;;16.50;11.40;;;;;;;11.70;78.14;100060.83;101026;1288;108354;-60
2022/10/22 07:59:11;;;;;;;16.70;11.50;;;;;;;11.76;78.36;100066.84;100882;1281;138830;-57
2022/10/22 08:01:39;;;;;;;17.00;11.80;;;;;;;11.79;78.38;100068.16;100864;1300;94591;-58
2022/10/22 08:04:08;;;;;;;17.70;12.10;;;;;;;11.83;78.37;100067.11;100728;1288;138561;-58
2022/10/22 08:06:37;;;;;;;18.10;12.80;;;;;;;11.86;78.23;100062.74;101013;1289;98292;-58
2022/10/22 08:09:05;;;;;;;17.40;11.70;;;;;;;11.88;78.17;100063.72;101029;1281;106467;-58
2022/10/22 08:11:34;;;;;;;17.60;12.20;;;;;;;11.89;78.30;100064.41;100900;1287;144002;-58
2022/10/22 08:14:02;;;;;;;16.30;11.70;;;;;;;11.94;78.25;100070.48;100846;1288;95616;-58
2022/10/22 08:16:30;;;;;;;17.80;11.60;;;;;;;11.96;78.19;100070.58;100795;1288;139071;-65
2022/10/22 08:18:58;;;;;;;17.90;12.60;;;;;;;11.98;77.81;100074.42;100499;1291;98812;-57
2022/10/22 08:21:26;;;;;;;20.00;13.20;;;;;;;11.98;77.96;100080.66;100442;1290;138378;-56
2022/10/22 08:23:54;;;;;;;16.80;11.60;;;;;;;11.96;78.07;100080.20;100904;1288;94300;-56
2022/10/22 08:26:22;;;;;;;18.00;11.80;;;;;;;11.92;77.95;100079.05;100871;1289;95802;-56
2022/10/22 08:28:50;;;;;;;18.60;11.40;;;;;;;11.92;78.06;100079.43;100724;1281;138598;-56
2022/10/22 08:31:18;;;;;;;18.70;11.70;;;;;;;11.89;77.97;100081.30;100825;1287;99047;-56
2022/10/22 08:33:46;;;;;;;17.10;12.00;;;;;;;11.92;78.10;100081.91;100723;1281;138892;-56
2022/10/22 08:36:14;;;;;;;17.00;11.70;;;;;;;11.96;78.00;100075.76;100848;1288;94302;-56
2022/10/22 08:38:42;;;;;;;17.90;12.00;;;;;;;11.99;78.03;100070.98;100978;1287;94589;-60
2022/10/22 08:41:17;;;;;;;18.00;12.20;;;;;;;12.07;78.10;100072.64;100877;1305;139204;-55
2022/10/22 08:44:03;;;;;;;17.00;12.80;;;;;;;12.17;78.01;100066.59;101079;1289;97824;-57
2022/10/22 08:47:02;;;;;;;17.70;12.50;;;;;;;12.22;78.04;100064.98;100593;1288;138106;-60
2022/10/22 08:49:36;;;;;;;17.30;11.80;;;;;;;12.23;77.75;100069.40;100814;1281;94338;-56
2022/10/22 08:52:17;;;;;;;17.00;12.00;;;;;;;12.22;77.50;100075.65;100561;1281;139466;-57
2022/10/22 08:54:47;;;;;;;17.00;11.60;;;;;;;12.23;77.77;100070.48;100498;1291;108465;-57
2022/10/22 08:57:40;;;;;;;18.10;12.50;;;;;;;12.30;77.91;100072.85;100715;1288;98132;-58
2022/10/22 09:00:18;;;;;;;17.30;12.00;;;;;;;12.33;77.40;100079.89;100847;1287;109298;-57
2022/10/22 09:02:52;;;;;;;18.40;13.20;;;;;;;12.31;77.33;100080.27;100939;1289;95245;-57
2022/10/22 09:05:33;;;;;;;17.80;12.50;;;;;;;12.33;77.15;100084.33;100709;1282;139146;-56
2022/10/22 09:08:01;;;;;;;18.00;12.80;;;;;;;12.33;77.39;100090.73;100872;1289;106630;-56
2022/10/22 09:10:35;;;;;;;20.30;12.90;;;;;;;12.35;77.31;100097.25;100606;1280;139212;-57
2022/10/22 09:13:03;;;;;;;19.40;13.20;;;;;;;12.35;77.43;100097.59;100503;1284;108142;-64
2022/10/22 09:15:30;;;;;;;22.20;14.70;;;;;;;12.37;77.27;100100.35;100667;1281;139099;-58
2022/10/22 09:18:30;;;;;;;21.50;14.80;;;;;;;12.37;77.48;100100.01;100796;1297;94381;-58
2022/10/22 09:24:47;;;;;;;22.50;15.00;;;;;;;12.42;77.31;100096.07;102288;1306;98668;-87
2022/10/22 09:27:25;;;;;;;23.50;15.50;;;;;;;12.42;77.59;100097.67;102331;1290;107831;-87
2022/10/22 09:29:52;;;;;;;23.80;16.70;;;;;;;12.48;77.55;100095.48;102049;1283;138958;-86
2022/10/22 09:32:20;;;;;;;27.10;16.70;;;;;;;12.55;77.39;100086.31;102221;1287;94314;-88
2022/10/22 09:34:54;;;;;;;24.80;16.90;;;;;;;12.60;77.31;100082.36;102108;1296;140259;-87
2022/10/22 09:40:46;;;;;;;23.60;15.80;;;;;;;12.71;76.89;100075.52;100940;1275;143325;-86
2022/10/22 09:43:14;;;;;;;31.10;20.20;;;;;;;12.76;76.88;100071.40;102392;1300;94795;-85
2022/10/22 09:45:43;;;;;;;23.30;14.90;;;;;;;12.85;76.84;100065.86;101626;1291;139238;-85
2022/10/22 09:48:14;;;;;;;22.30;14.60;;;;;;;12.93;76.49;100063.95;102246;1297;107163;-85
2022/10/22 09:50:53;;;;;;;23.80;16.10;;;;;;;12.96;76.34;100062.73;102227;1290;99899;-86
2022/10/22 09:53:27;;;;;;;23.30;14.00;;;;;;;13.06;76.64;100068.05;102001;1312;140118;-85
2022/10/22 09:55:58;;;;;;;22.00;14.30;;;;;;;13.17;76.52;100073.46;102125;1301;94298;-86
2022/10/22 09:58:27;;;;;;;23.00;14.90;;;;;;;13.22;76.37;100073.06;103161;1297;142838;-86
2022/10/22 10:00:59;;;;;;;22.50;14.90;;;;;;;13.30;76.16;100073.07;102168;1284;107976;-86
2022/10/22 10:03:30;;;;;;;25.20;15.90;;;;;;;13.33;75.85;100074.58;102503;1298;99986;-88
2022/10/22 10:06:01;;;;;;;21.80;14.40;;;;;;;13.39;75.83;100078.06;102210;1297;140778;-87
2022/10/22 10:08:33;;;;;;;22.90;14.80;;;;;;;13.45;75.69;100087.82;102349;1306;94371;-86
2022/10/22 10:11:09;;;;;;;22.00;14.40;;;;;;;13.48;75.47;100083.22;102286;1297;139859;-89
2022/10/22 10:13:55;;;;;;;19.80;13.90;;;;;;;13.45;75.21;100081.41;102291;1297;108413;-87
2022/10/22 10:16:58;;;;;;;21.80;13.80;;;;;;;13.37;75.41;100075.83;102309;1298;139588;-85
2022/10/22 10:19:45;;;;;;;19.50;13.40;;;;;;;13.38;75.58;100081.50;101917;1293;108907;-87
2022/10/22 10:22:31;;;;;;;20.50;13.80;;;;;;;13.43;75.50;100087.36;101954;1308;140686;-85
2022/10/22 10:25:11;;;;;;;21.20;14.10;;;;;;;13.42;75.65;100092.05;101803;1301;94545;-89
2022/10/22 10:27:52;;;;;;;21.10;13.70;;;;;;;13.41;75.09;100096.38;102224;1291;141115;-88
2022/10/22 10:30:24;;;;;;;22.70;13.60;;;;;;;13.32;75.20;100100.63;101994;1284;99459;-87
2022/10/22 10:33:01;;;;;;;21.20;14.50;;;;;;;13.25;75.32;100097.05;103346;1291;108317;-86
2022/10/22 10:35:41;;;;;;;21.90;14.30;;;;;;;13.24;75.70;100086.35;102045;1291;139280;-85
2022/10/22 10:38:31;;;;;;;21.00;14.10;;;;;;;13.21;75.66;100087.02;102194;1284;94319;-85
2022/10/22 10:41:06;;;;;;;21.90;15.00;;;;;;;13.24;76.08;100090.11;102176;1290;140599;-86
2022/10/22 10:43:51;;;;;;;27.90;19.60;;;;;;;13.28;76.19;100094.23;102176;1297;97306;-86
2022/10/22 10:46:39;;;;;;;20.50;14.90;;;;;;;13.31;76.04;100101.59;101932;1299;139366;-86
2022/10/22 10:49:17;;;;;;;22.30;14.90;;;;;;;13.27;76.08;100104.95;101994;1300;95602;-86
2022/10/22 10:51:57;;;;;;;25.00;15.20;;;;;;;13.22;76.02;100106.77;101799;1314;141706;-85
2022/10/22 10:54:39;;;;;;;23.00;14.50;;;;;;;13.19;76.29;100105.29;102304;1290;105681;-86
2022/10/22 10:57:32;;;;;;;22.10;14.70;;;;;;;13.15;76.48;100107.76;102195;1306;97363;-85
2022/10/22 11:00:06;;;;;;;24.00;15.10;;;;;;;13.17;76.53;100109.99;102255;1305;138636;-84
2022/10/22 11:03:10;;;;;;;22.80;15.50;;;;;;;13.17;76.55;100101.98;102221;1294;94810;-83
2022/10/22 11:05:43;;;;;;;22.30;15.50;;;;;;;13.15;76.80;100104.22;101548;1283;141500;-62
2022/10/22 11:08:19;;;;;;;23.80;15.90;;;;;;;13.14;76.78;100095.70;100660;1292;107779;-65
2022/10/22 11:10:53;;;;;;;24.20;16.00;;;;;;;13.16;76.86;100092.20;100466;1287;139154;-62
2022/10/22 11:13:44;;;;;;;23.90;15.40;;;;;;;13.16;76.79;100084.72;100499;1298;108101;-64
2022/10/22 11:16:30;;;;;;;23.20;15.80;;;;;;;13.17;76.74;100076.14;100356;1291;139409;-62
2022/10/22 11:19:39;;;;;;;24.70;15.40;;;;;;;13.15;76.90;100069.27;100575;1290;94303;-63
2022/10/22 11:22:35;;;;;;;23.60;14.70;;;;;;;13.20;77.36;100067.98;99367;1299;139542;-63
2022/10/22 11:25:12;;;;;;;22.80;14.80;;;;;;;13.29;77.30;100067.41;99603;1299;99653;-63
2022/10/22 11:27:52;;;;;;;24.80;15.80;;;;;;;13.39;77.07;100073.25;100151;1284;140031;-64
2022/10/22 11:30:22;;;;;;;24.10;16.10;;;;;;;13.47;76.79;100073.80;100697;1290;94344;-65
2022/10/22 11:32:56;;;;;;;23.40;15.80;;;;;;;13.49;76.26;100075.52;101296;1284;95407;-63
2022/10/22 11:35:30;;;;;;;21.80;15.20;;;;;;;13.48;76.44;100076.61;100538;1289;139706;-64
2022/10/22 11:37:59;;;;;;;23.60;15.40;;;;;;;13.50;76.73;100073.14;100944;1284;98310;-63
2022/10/22 11:40:27;;;;;;;23.10;15.30;;;;;;;13.58;76.65;100075.84;100477;1289;138708;-61
2022/10/22 11:43:04;;;;;;;22.20;15.20;;;;;;;13.63;76.09;100074.91;100630;1284;94825;-65
2022/10/22 11:45:41;;;;;;;22.60;15.20;;;;;;;13.68;76.16;100070.23;100635;1289;94228;-63
2022/10/22 11:48:09;;;;;;;23.20;15.40;;;;;;;13.72;76.01;100070.05;100400;1290;109018;-63
2022/10/22 11:50:55;;;;;;;22.60;15.30;;;;;;;13.74;75.74;100066.94;100469;1284;98076;-64
2022/10/22 11:53:35;;;;;;;25.70;15.80;;;;;;;13.80;75.86;100067.53;100667;1290;138737;-62
2022/10/22 11:56:05;;;;;;;23.60;16.50;;;;;;;13.84;75.51;100065.04;100584;1291;94419;-64
2022/10/22 11:58:40;;;;;;;25.80;16.90;;;;;;;13.78;75.29;100059.61;100449;1291;138127;-63
2022/10/22 12:01:08;;;;;;;24.10;15.90;;;;;;;13.80;75.54;100054.88;100646;1284;107473;-62
2022/10/22 12:03:42;;;;;;;23.50;16.50;;;;;;;13.82;75.70;100053.02;100729;1290;99820;-64
2022/10/22 12:06:18;;;;;;;26.50;16.70;;;;;;;13.83;75.45;100050.48;100610;1284;109157;-65
2022/10/22 12:08:49;;;;;;;25.50;16.80;;;;;;;13.86;75.54;100052.84;100569;1284;94405;-65
2022/10/22 12:11:36;;;;;;;24.10;17.00;;;;;;;13.88;75.44;100046.46;100389;1289;142059;-62
2022/10/22 12:14:15;;;;;;;25.60;17.20;;;;;;;13.88;75.20;100044.15;100399;1285;152519;-63
2022/10/22 12:16:52;;;;;;;26.60;17.60;;;;;;;13.88;75.47;100042.39;100524;1288;138369;-62
2022/10/22 12:19:39;;;;;;;25.60;16.90;;;;;;;13.86;75.53;100043.52;100597;1290;106424;-61
2022/10/22 12:22:22;;;;;;;25.30;16.10;;;;;;;13.89;75.68;100044.66;100176;1282;140299;-63
2022/10/22 12:24:53;;;;;;;24.40;16.50;;;;;;;13.89;75.50;100041.25;100411;1284;94858;-60
2022/10/22 12:27:26;;;;;;;25.80;16.70;;;;;;;13.91;75.30;100040.65;101038;1284;106958;-61
2022/10/22 12:29:59;;;;;;;24.00;17.00;;;;;;;13.91;75.53;100038.50;100294;1284;139605;-62
2022/10/22 12:32:36;;;;;;;23.70;15.60;;;;;;;13.88;75.34;100037.20;100426;1283;107217;-62
2022/10/22 12:35:08;;;;;;;28.00;18.40;;;;;;;13.87;75.53;100035.45;100559;1290;138502;-61
2022/10/22 12:37:37;;;;;;;27.80;18.60;;;;;;;13.86;75.47;100038.38;100662;1283;94449;-62
2022/10/22 12:40:21;;;;;;;27.40;18.70;;;;;;;13.83;75.67;100036.52;100462;1290;139456;-61
2022/10/22 12:43:14;;;;;;;28.50;19.10;;;;;;;13.81;75.60;100036.08;100501;1291;98627;-62
2022/10/22 12:45:44;;;;;;;30.40;20.60;;;;;;;13.84;75.81;100036.69;100342;1285;139067;-61
2022/10/22 12:48:27;;;;;;;28.60;19.80;;;;;;;13.84;75.99;100037.54;100527;1283;94563;-63
2022/10/22 12:50:58;;;;;;;28.20;20.80;;;;;;;13.83;75.84;100034.02;100498;1283;94355;-61
2022/10/22 12:53:30;;;;;;;24.90;17.00;;;;;;;13.87;76.04;100034.58;100206;1283;138807;-62
2022/10/22 12:56:03;;;;;;;25.50;16.70;;;;;;;13.84;75.82;100035.62;100362;1291;98238;-62
2022/10/22 12:58:47;;;;;;;25.50;17.90;;;;;;;13.87;76.00;100039.58;100369;1283;138773;-64
2022/10/22 13:01:17;;;;;;;25.00;18.20;;;;;;;13.94;76.02;100035.33;100153;1284;96440;-60
2022/10/22 13:03:49;;;;;;;25.40;17.70;;;;;;;14.01;75.90;100033.39;100794;1280;138190;-63
2022/10/22 13:06:17;;;;;;;24.80;16.40;;;;;;;13.97;75.40;100047.88;100459;1283;107318;-63
2022/10/22 13:09:17;;;;;;;25.20;17.10;;;;;;;13.91;75.30;100055.83;100360;1283;99475;-63
2022/10/22 13:11:57;;;;;;;33.70;21.40;;;;;;;13.90;75.46;100055.33;100270;1290;138361;-65
2022/10/22 13:14:30;;;;;;;32.20;21.30;;;;;;;13.86;75.51;100053.91;100427;1284;94417;-62
2022/10/22 13:17:17;;;;;;;32.60;21.10;;;;;;;13.80;75.52;100060.42;100311;1283;138796;-62
2022/10/22 13:20:19;;;;;;;33.60;19.20;;;;;;;13.78;75.69;100064.06;100363;1290;107346;-60
2022/10/22 13:23:02;;;;;;;31.10;20.10;;;;;;;13.80;75.87;100068.08;100155;1283;138578;-61
2022/10/22 13:25:36;;;;;;;27.50;18.70;;;;;;;13.78;75.62;100064.23;100430;1284;108497;-60
2022/10/22 13:28:07;;;;;;;31.30;20.40;;;;;;;13.73;75.75;100059.48;100300;1284;140557;-64
2022/10/22 13:30:36;;;;;;;28.90;19.10;;;;;;;13.71;76.03;100056.17;100363;1284;94990;-61
2022/10/22 13:33:19;;;;;;;24.40;18.30;;;;;;;13.75;75.73;100057.09;100413;1284;106937;-63
2022/10/22 13:35:46;;;;;;;26.90;17.90;;;;;;;13.73;75.80;100060.02;100215;1284;139703;-63
2022/10/22 13:38:18;;;;;;;27.70;18.10;;;;;;;13.71;75.74;100053.67;100352;1290;108690;-61
2022/10/22 13:40:46;;;;;;;26.90;17.90;;;;;;;13.69;75.93;100058.56;100141;1283;138994;-61
2022/10/22 13:43:15;;;;;;;30.60;19.50;;;;;;;13.69;75.91;100058.58;104322;1287;94066;-60
2022/10/22 13:45:44;;;;;;;31.80;20.80;;;;;;;13.67;76.01;100058.68;102621;1283;139730;-62
2022/10/22 13:48:15;;;;;;;26.90;19.00;;;;;;;13.63;76.11;100057.94;100434;1284;98310;-64
2022/10/22 13:50:42;;;;;;;30.10;18.90;;;;;;;13.67;76.08;100051.00;100514;1290;109772;-64
2022/10/22 13:53:36;;;;;;;27.60;18.60;;;;;;;13.72;76.30;100043.80;100249;1290;138977;-63
2022/10/22 13:56:04;;;;;;;27.80;18.80;;;;;;;13.74;76.06;100043.20;100445;1298;94766;-63
2022/10/22 13:58:32;;;;;;;28.20;19.70;;;;;;;13.71;75.90;100045.65;100412;1290;138952;-63
2022/10/22 14:01:01;;;;;;;27.90;18.50;;;;;;;13.73;76.02;100043.06;100399;1283;100377;-62
2022/10/22 14:03:33;;;;;;;28.40;18.70;;;;;;;13.76;76.21;100039.56;100507;1290;108473;-61
2022/10/22 14:06:00;;;;;;;28.70;19.70;;;;;;;13.80;76.14;100037.58;100158;1291;138724;-63
2022/10/22 14:08:28;;;;;;;29.70;19.70;;;;;;;13.81;76.02;100034.33;100150;1284;95247;-63
2022/10/22 14:10:56;;;;;;;30.30;20.60;;;;;;;13.78;75.85;100032.85;100078;1290;139353;-61
2022/10/22 14:13:25;;;;;;;31.60;19.70;;;;;;;13.76;76.17;100032.59;100200;1283;98941;-62
2022/10/22 14:15:53;;;;;;;30.50;20.40;;;;;;;13.76;76.16;100034.92;100518;1290;139000;-62
2022/10/22 14:18:26;;;;;;;32.80;22.60;;;;;;;13.72;76.02;100032.79;100089;1284;94751;-60
2022/10/22 14:20:57;;;;;;;32.90;21.50;;;;;;;13.69;76.47;100025.23;100306;1284;94760;-61
2022/10/22 14:23:30;;;;;;;31.90;21.30;;;;;;;13.76;76.43;100025.27;100441;1290;138837;-60
2022/10/22 14:25:59;;;;;;;32.60;21.20;;;;;;;13.78;76.51;100024.81;100346;1282;99437;-62
2022/10/22 14:28:27;;;;;;;30.50;21.20;;;;;;;13.82;76.56;100023.92;100377;1283;138738;-62
2022/10/22 14:30:58;;;;;;;34.40;22.60;;;;;;;13.86;76.24;100026.24;100321;1288;94838;-63
2022/10/22 14:33:29;;;;;;;33.70;22.90;;;;;;;13.84;76.32;100019.89;101385;1290;94495;-63
2022/10/22 14:36:00;;;;;;;36.00;24.00;;;;;;;13.87;76.27;100020.84;100474;1291;138580;-64
2022/10/22 14:38:28;;;;;;;34.40;22.80;;;;;;;13.87;76.22;100021.56;100424;1284;99324;-63
2022/10/22 14:40:58;;;;;;;34.70;23.90;;;;;;;13.84;76.30;100026.66;100355;1282;140035;-59
2022/10/22 14:43:29;;;;;;;36.70;24.20;;;;;;;13.87;76.27;100025.12;100512;1284;94826;-61
2022/10/22 14:45:58;;;;;;;35.10;23.30;;;;;;;13.88;76.14;100027.38;100543;1291;140040;-62
2022/10/22 14:48:25;;;;;;;35.80;23.30;;;;;;;13.87;76.15;100030.81;100611;1291;108722;-64
2022/10/22 14:50:54;;;;;;;32.50;22.60;;;;;;;13.84;76.10;100030.93;100614;1291;99398;-64